sensor_id;sensor_type;location;lat;lon;timestamp;temperature;humidity
13093;DHT22;6612;49.568;11.000;2022-08-05T00:01:40;27.90;34.40
13093;DHT22;6612;49.568;11.000;2022-08-05T00:04:07;27.80;34.70
13093;DHT22;6612;49.568;11.000;2022-08-05T00:06:34;27.80;34.60
13093;DHT22;6612;49.568;11.000;2022-08-05T00:09:02;27.80;34.70
13093;DHT22;6612;49.568;11.000;2022-08-05T00:11:29;27.70;34.80
13093;DHT22;6612;49.568;11.000;2022-08-05T00:13:56;27.70;34.90
13093;DHT22;6612;49.568;11.000;2022-08-05T00:16:23;27.70;35.00
13093;DHT22;6612;49.568;11.000;2022-08-05T00:18:51;27.60;35.10
13093;DHT22;6612;49.568;11.000;2022-08-05T00:21:18;27.60;35.50
13093;DHT22;6612;49.568;11.000;2022-08-05T00:23:46;27.50;35.40
13093;DHT22;6612;49.568;11.000;2022-08-05T00:26:14;27.50;35.60
13093;DHT22;6612;49.568;11.000;2022-08-05T00:28:41;27.50;35.90
13093;DHT22;6612;49.568;11.000;2022-08-05T00:31:08;27.40;35.80
13093;DHT22;6612;49.568;11.000;2022-08-05T00:33:35;27.40;35.90
13093;DHT22;6612;49.568;11.000;2022-08-05T00:36:04;27.30;36.00
13093;DHT22;6612;49.568;11.000;2022-08-05T00:38:31;27.30;36.30
13093;DHT22;6612;49.568;11.000;2022-08-05T00:40:58;27.30;36.20
13093;DHT22;6612;49.568;11.000;2022-08-05T00:43:25;27.20;36.20
13093;DHT22;6612;49.568;11.000;2022-08-05T00:45:53;27.20;36.40
13093;DHT22;6612;49.568;11.000;2022-08-05T00:48:21;27.20;36.60
13093;DHT22;6612;49.568;11.000;2022-08-05T00:50:50;27.10;36.70
13093;DHT22;6612;49.568;11.000;2022-08-05T00:53:20;27.10;36.70
13093;DHT22;6612;49.568;11.000;2022-08-05T00:55:48;27.00;36.90
13093;DHT22;6612;49.568;11.000;2022-08-05T00:58:16;27.00;36.80
13093;DHT22;6612;49.568;11.000;2022-08-05T01:00:43;27.00;37.10
13093;DHT22;6612;49.568;11.000;2022-08-05T01:03:10;26.90;37.00
13093;DHT22;6612;49.568;11.000;2022-08-05T01:05:38;26.90;37.20
13093;DHT22;6612;49.568;11.000;2022-08-05T01:08:05;26.90;37.30
13093;DHT22;6612;49.568;11.000;2022-08-05T01:10:39;26.80;37.40
13093;DHT22;6612;49.568;11.000;2022-08-05T01:13:13;26.80;37.90
13093;DHT22;6612;49.568;11.000;2022-08-05T01:15:46;26.80;37.80
13093;DHT22;6612;49.568;11.000;2022-08-05T01:18:20;26.70;37.70
13093;DHT22;6612;49.568;11.000;2022-08-05T01:20:53;26.70;37.90
13093;DHT22;6612;49.568;11.000;2022-08-05T01:23:33;26.70;38.00
13093;DHT22;6612;49.568;11.000;2022-08-05T01:26:17;26.70;38.20
13093;DHT22;6612;49.568;11.000;2022-08-05T01:28:52;26.60;38.40
13093;DHT22;6612;49.568;11.000;2022-08-05T01:31:25;26.60;38.20
13093;DHT22;6612;49.568;11.000;2022-08-05T01:33:58;26.60;38.20
13093;DHT22;6612;49.568;11.000;2022-08-05T01:36:30;26.50;38.30
13093;DHT22;6612;49.568;11.000;2022-08-05T01:38:59;26.50;38.50
13093;DHT22;6612;49.568;11.000;2022-08-05T01:41:30;26.50;38.40
13093;DHT22;6612;49.568;11.000;2022-08-05T01:44:00;26.40;38.60
13093;DHT22;6612;49.568;11.000;2022-08-05T01:46:28;26.40;38.70
13093;DHT22;6612;49.568;11.000;2022-08-05T01:48:57;26.30;38.70
13093;DHT22;6612;49.568;11.000;2022-08-05T01:51:26;26.30;38.80
13093;DHT22;6612;49.568;11.000;2022-08-05T01:53:53;26.30;38.90
13093;DHT22;6612;49.568;11.000;2022-08-05T01:56:23;26.20;39.10
13093;DHT22;6612;49.568;11.000;2022-08-05T01:58:52;26.20;39.40
13093;DHT22;6612;49.568;11.000;2022-08-05T02:01:22;26.20;39.40
13093;DHT22;6612;49.568;11.000;2022-08-05T02:03:51;26.20;39.70
13093;DHT22;6612;49.568;11.000;2022-08-05T02:06:19;26.10;39.60
13093;DHT22;6612;49.568;11.000;2022-08-05T02:08:46;26.10;39.60
13093;DHT22;6612;49.568;11.000;2022-08-05T02:11:15;26.10;39.80
13093;DHT22;6612;49.568;11.000;2022-08-05T02:13:46;26.10;39.90
13093;DHT22;6612;49.568;11.000;2022-08-05T02:16:20;26.10;40.10
13093;DHT22;6612;49.568;11.000;2022-08-05T02:18:52;26.00;40.20
13093;DHT22;6612;49.568;11.000;2022-08-05T02:21:24;26.00;40.30
13093;DHT22;6612;49.568;11.000;2022-08-05T02:23:55;26.00;40.30
13093;DHT22;6612;49.568;11.000;2022-08-05T02:26:26;26.00;40.40
13093;DHT22;6612;49.568;11.000;2022-08-05T02:28:54;26.00;40.50
13093;DHT22;6612;49.568;11.000;2022-08-05T02:31:25;25.90;40.40
13093;DHT22;6612;49.568;11.000;2022-08-05T02:33:57;25.90;40.30
13093;DHT22;6612;49.568;11.000;2022-08-05T02:36:26;25.90;40.70
13093;DHT22;6612;49.568;11.000;2022-08-05T02:38:55;25.90;40.50
13093;DHT22;6612;49.568;11.000;2022-08-05T02:41:25;25.90;40.80
13093;DHT22;6612;49.568;11.000;2022-08-05T02:43:54;25.80;41.00
13093;DHT22;6612;49.568;11.000;2022-08-05T02:46:22;25.80;41.10
13093;DHT22;6612;49.568;11.000;2022-08-05T02:48:50;25.80;41.10
13093;DHT22;6612;49.568;11.000;2022-08-05T02:51:20;25.80;41.80
13093;DHT22;6612;49.568;11.000;2022-08-05T02:53:48;25.80;41.30
13093;DHT22;6612;49.568;11.000;2022-08-05T02:56:16;25.70;41.20
13093;DHT22;6612;49.568;11.000;2022-08-05T02:58:44;25.70;41.30
13093;DHT22;6612;49.568;11.000;2022-08-05T03:01:17;25.70;41.30
13093;DHT22;6612;49.568;11.000;2022-08-05T03:03:48;25.70;41.70
13093;DHT22;6612;49.568;11.000;2022-08-05T03:06:16;25.60;41.70
13093;DHT22;6612;49.568;11.000;2022-08-05T03:08:48;25.60;41.60
13093;DHT22;6612;49.568;11.000;2022-08-05T03:11:16;25.60;41.80
13093;DHT22;6612;49.568;11.000;2022-08-05T03:13:44;25.60;41.90
13093;DHT22;6612;49.568;11.000;2022-08-05T03:16:11;25.60;42.00
13093;DHT22;6612;49.568;11.000;2022-08-05T03:18:38;25.60;42.00
13093;DHT22;6612;49.568;11.000;2022-08-05T03:21:05;25.50;42.00
13093;DHT22;6612;49.568;11.000;2022-08-05T03:23:33;25.50;42.10
13093;DHT22;6612;49.568;11.000;2022-08-05T03:26:03;25.50;42.30
13093;DHT22;6612;49.568;11.000;2022-08-05T03:28:31;25.60;42.50
13093;DHT22;6612;49.568;11.000;2022-08-05T03:30:59;25.60;42.40
13093;DHT22;6612;49.568;11.000;2022-08-05T03:33:27;25.60;42.50
13093;DHT22;6612;49.568;11.000;2022-08-05T03:35:55;25.60;42.50
13093;DHT22;6612;49.568;11.000;2022-08-05T03:38:23;25.70;42.60
13093;DHT22;6612;49.568;11.000;2022-08-05T03:40:50;25.70;42.60
13093;DHT22;6612;49.568;11.000;2022-08-05T03:43:19;25.70;42.70
13093;DHT22;6612;49.568;11.000;2022-08-05T03:45:49;25.80;42.80
13093;DHT22;6612;49.568;11.000;2022-08-05T03:48:17;25.80;42.70
13093;DHT22;6612;49.568;11.000;2022-08-05T03:50:49;25.80;42.80
13093;DHT22;6612;49.568;11.000;2022-08-05T03:53:22;25.80;43.10
13093;DHT22;6612;49.568;11.000;2022-08-05T03:55:59;25.90;43.20
13093;DHT22;6612;49.568;11.000;2022-08-05T03:58:30;25.90;43.20
13093;DHT22;6612;49.568;11.000;2022-08-05T04:00:59;25.90;43.10
13093;DHT22;6612;49.568;11.000;2022-08-05T04:03:28;25.90;43.00
13093;DHT22;6612;49.568;11.000;2022-08-05T04:06:01;25.90;43.10
13093;DHT22;6612;49.568;11.000;2022-08-05T04:08:28;26.00;43.40
13093;DHT22;6612;49.568;11.000;2022-08-05T04:10:56;26.10;43.40
13093;DHT22;6612;49.568;11.000;2022-08-05T04:13:24;26.10;43.20
13093;DHT22;6612;49.568;11.000;2022-08-05T04:15:53;26.10;43.10
13093;DHT22;6612;49.568;11.000;2022-08-05T04:18:22;26.10;43.20
13093;DHT22;6612;49.568;11.000;2022-08-05T04:20:52;26.20;43.30
13093;DHT22;6612;49.568;11.000;2022-08-05T04:23:22;26.20;43.40
13093;DHT22;6612;49.568;11.000;2022-08-05T04:25:49;26.30;43.60
13093;DHT22;6612;49.568;11.000;2022-08-05T04:28:17;26.30;43.60
13093;DHT22;6612;49.568;11.000;2022-08-05T04:30:43;26.30;43.70
13093;DHT22;6612;49.568;11.000;2022-08-05T04:33:12;26.30;43.60
13093;DHT22;6612;49.568;11.000;2022-08-05T04:35:40;26.30;43.50
13093;DHT22;6612;49.568;11.000;2022-08-05T04:38:07;26.40;43.70
13093;DHT22;6612;49.568;11.000;2022-08-05T04:40:35;26.40;43.90
13093;DHT22;6612;49.568;11.000;2022-08-05T04:43:02;26.50;43.90
13093;DHT22;6612;49.568;11.000;2022-08-05T04:45:30;26.60;43.80
13093;DHT22;6612;49.568;11.000;2022-08-05T04:48:06;26.60;43.80
13093;DHT22;6612;49.568;11.000;2022-08-05T04:50:39;26.70;44.20
13093;DHT22;6612;49.568;11.000;2022-08-05T04:53:07;26.90;43.70
13093;DHT22;6612;49.568;11.000;2022-08-05T04:55:35;27.00;43.50
13093;DHT22;6612;49.568;11.000;2022-08-05T04:58:02;27.10;43.40
13093;DHT22;6612;49.568;11.000;2022-08-05T05:00:30;27.20;43.40
13093;DHT22;6612;49.568;11.000;2022-08-05T05:02:57;27.30;43.50
13093;DHT22;6612;49.568;11.000;2022-08-05T05:05:24;27.40;43.10
13093;DHT22;6612;49.568;11.000;2022-08-05T05:07:52;27.50;42.70
13093;DHT22;6612;49.568;11.000;2022-08-05T05:10:19;27.60;42.70
13093;DHT22;6612;49.568;11.000;2022-08-05T05:12:46;27.70;42.40
13093;DHT22;6612;49.568;11.000;2022-08-05T05:15:13;27.80;42.40
13093;DHT22;6612;49.568;11.000;2022-08-05T05:17:41;27.90;42.50
13093;DHT22;6612;49.568;11.000;2022-08-05T05:20:10;28.20;42.50
13093;DHT22;6612;49.568;11.000;2022-08-05T05:22:38;28.40;42.30
13093;DHT22;6612;49.568;11.000;2022-08-05T05:25:08;28.50;41.90
13093;DHT22;6612;49.568;11.000;2022-08-05T05:27:35;28.60;41.30
13093;DHT22;6612;49.568;11.000;2022-08-05T05:30:03;28.70;40.80
13093;DHT22;6612;49.568;11.000;2022-08-05T05:32:30;28.80;40.60
13093;DHT22;6612;49.568;11.000;2022-08-05T05:34:57;28.90;40.70
13093;DHT22;6612;49.568;11.000;2022-08-05T05:37:24;29.10;41.20
13093;DHT22;6612;49.568;11.000;2022-08-05T05:39:51;29.40;41.70
13093;DHT22;6612;49.568;11.000;2022-08-05T05:42:19;29.80;41.10
13093;DHT22;6612;49.568;11.000;2022-08-05T05:44:46;30.00;40.20
13093;DHT22;6612;49.568;11.000;2022-08-05T05:47:13;30.30;39.50
13093;DHT22;6612;49.568;11.000;2022-08-05T05:49:40;30.40;38.90
13093;DHT22;6612;49.568;11.000;2022-08-05T05:52:07;30.60;39.50
13093;DHT22;6612;49.568;11.000;2022-08-05T05:54:34;30.90;39.70
13093;DHT22;6612;49.568;11.000;2022-08-05T05:57:01;31.20;39.60
13093;DHT22;6612;49.568;11.000;2022-08-05T05:59:29;31.70;39.60
13093;DHT22;6612;49.568;11.000;2022-08-05T06:01:56;32.30;39.40
13093;DHT22;6612;49.568;11.000;2022-08-05T06:04:23;32.90;39.20
13093;DHT22;6612;49.568;11.000;2022-08-05T06:06:50;33.50;38.30
13093;DHT22;6612;49.568;11.000;2022-08-05T06:09:17;33.90;37.00
13093;DHT22;6612;49.568;11.000;2022-08-05T06:11:44;34.30;35.90
13093;DHT22;6612;49.568;11.000;2022-08-05T06:14:11;34.40;34.80
13093;DHT22;6612;49.568;11.000;2022-08-05T06:16:39;34.40;34.00
13093;DHT22;6612;49.568;11.000;2022-08-05T06:19:06;34.30;33.50
13093;DHT22;6612;49.568;11.000;2022-08-05T06:21:34;34.20;34.00
13093;DHT22;6612;49.568;11.000;2022-08-05T06:24:01;34.00;33.30
13093;DHT22;6612;49.568;11.000;2022-08-05T06:26:28;33.80;33.30
13093;DHT22;6612;49.568;11.000;2022-08-05T06:28:55;33.50;33.30
13093;DHT22;6612;49.568;11.000;2022-08-05T06:31:22;33.30;33.50
13093;DHT22;6612;49.568;11.000;2022-08-05T06:33:50;33.10;33.80
13093;DHT22;6612;49.568;11.000;2022-08-05T06:36:17;32.90;34.00
13093;DHT22;6612;49.568;11.000;2022-08-05T06:38:44;32.80;34.20
13093;DHT22;6612;49.568;11.000;2022-08-05T06:41:11;32.70;34.50
13093;DHT22;6612;49.568;11.000;2022-08-05T06:43:38;32.60;34.80
13093;DHT22;6612;49.568;11.000;2022-08-05T06:46:05;32.60;34.90
13093;DHT22;6612;49.568;11.000;2022-08-05T06:48:32;32.50;35.00
13093;DHT22;6612;49.568;11.000;2022-08-05T06:51:01;32.50;35.10
13093;DHT22;6612;49.568;11.000;2022-08-05T06:53:28;32.40;35.40
13093;DHT22;6612;49.568;11.000;2022-08-05T06:55:56;32.50;35.80
13093;DHT22;6612;49.568;11.000;2022-08-05T06:58:24;32.70;36.10
13093;DHT22;6612;49.568;11.000;2022-08-05T07:00:51;32.90;36.60
13093;DHT22;6612;49.568;11.000;2022-08-05T07:03:18;33.30;37.00
13093;DHT22;6612;49.568;11.000;2022-08-05T07:05:45;33.70;36.70
13093;DHT22;6612;49.568;11.000;2022-08-05T07:08:13;34.30;36.60
13093;DHT22;6612;49.568;11.000;2022-08-05T07:10:40;34.90;36.20
13093;DHT22;6612;49.568;11.000;2022-08-05T07:13:07;35.40;35.40
13093;DHT22;6612;49.568;11.000;2022-08-05T07:15:51;35.90;34.80
13093;DHT22;6612;49.568;11.000;2022-08-05T07:18:35;36.30;33.80
13093;DHT22;6612;49.568;11.000;2022-08-05T07:21:02;36.50;32.90
13093;DHT22;6612;49.568;11.000;2022-08-05T07:23:32;36.70;32.40
13093;DHT22;6612;49.568;11.000;2022-08-05T07:25:59;36.70;32.00
13093;DHT22;6612;49.568;11.000;2022-08-05T07:28:26;36.80;31.90
13093;DHT22;6612;49.568;11.000;2022-08-05T07:30:53;36.80;31.70
13093;DHT22;6612;49.568;11.000;2022-08-05T07:33:20;36.80;31.40
13093;DHT22;6612;49.568;11.000;2022-08-05T07:35:47;36.80;31.30
13093;DHT22;6612;49.568;11.000;2022-08-05T07:38:14;36.80;31.20
13093;DHT22;6612;49.568;11.000;2022-08-05T07:40:43;36.90;30.90
13093;DHT22;6612;49.568;11.000;2022-08-05T07:43:10;36.90;30.80
13093;DHT22;6612;49.568;11.000;2022-08-05T07:45:38;36.90;30.60
13093;DHT22;6612;49.568;11.000;2022-08-05T07:48:05;36.90;30.40
13093;DHT22;6612;49.568;11.000;2022-08-05T07:50:32;37.00;30.40
13093;DHT22;6612;49.568;11.000;2022-08-05T07:52:59;37.00;30.20
13093;DHT22;6612;49.568;11.000;2022-08-05T07:55:26;37.10;30.30
13093;DHT22;6612;49.568;11.000;2022-08-05T07:57:55;37.20;30.10
13093;DHT22;6612;49.568;11.000;2022-08-05T08:00:22;37.30;30.00
13093;DHT22;6612;49.568;11.000;2022-08-05T08:02:49;37.30;29.90
13093;DHT22;6612;49.568;11.000;2022-08-05T08:05:16;37.40;29.70
13093;DHT22;6612;49.568;11.000;2022-08-05T08:07:43;37.40;29.60
13093;DHT22;6612;49.568;11.000;2022-08-05T08:10:10;37.40;29.40
13093;DHT22;6612;49.568;11.000;2022-08-05T08:12:37;37.30;29.40
13093;DHT22;6612;49.568;11.000;2022-08-05T08:15:07;37.30;29.50
13093;DHT22;6612;49.568;11.000;2022-08-05T08:17:34;37.40;29.50
13093;DHT22;6612;49.568;11.000;2022-08-05T08:20:01;37.30;29.40
13093;DHT22;6612;49.568;11.000;2022-08-05T08:22:30;37.30;29.30
13093;DHT22;6612;49.568;11.000;2022-08-05T08:24:57;37.40;29.30
13093;DHT22;6612;49.568;11.000;2022-08-05T08:27:24;37.30;29.20
13093;DHT22;6612;49.568;11.000;2022-08-05T08:29:51;37.30;29.30
13093;DHT22;6612;49.568;11.000;2022-08-05T08:32:20;37.30;29.30
13093;DHT22;6612;49.568;11.000;2022-08-05T08:34:46;37.20;29.20
13093;DHT22;6612;49.568;11.000;2022-08-05T08:37:13;37.20;29.30
13093;DHT22;6612;49.568;11.000;2022-08-05T08:39:40;37.20;29.50
13093;DHT22;6612;49.568;11.000;2022-08-05T08:42:08;37.20;29.50
13093;DHT22;6612;49.568;11.000;2022-08-05T08:44:35;37.30;30.00
13093;DHT22;6612;49.568;11.000;2022-08-05T08:47:03;37.30;29.40
13093;DHT22;6612;49.568;11.000;2022-08-05T08:49:33;37.40;29.30
13093;DHT22;6612;49.568;11.000;2022-08-05T08:52:07;37.50;29.30
13093;DHT22;6612;49.568;11.000;2022-08-05T08:54:36;37.60;29.20
13093;DHT22;6612;49.568;11.000;2022-08-05T08:57:05;37.70;29.20
13093;DHT22;6612;49.568;11.000;2022-08-05T08:59:32;37.80;29.00
13093;DHT22;6612;49.568;11.000;2022-08-05T09:01:59;37.90;29.00
13093;DHT22;6612;49.568;11.000;2022-08-05T09:04:27;38.00;28.90
13093;DHT22;6612;49.568;11.000;2022-08-05T09:06:55;38.00;28.70
13093;DHT22;6612;49.568;11.000;2022-08-05T09:09:23;38.10;28.60
13093;DHT22;6612;49.568;11.000;2022-08-05T09:11:50;38.10;28.40
13093;DHT22;6612;49.568;11.000;2022-08-05T09:14:17;38.20;28.30
13093;DHT22;6612;49.568;11.000;2022-08-05T09:16:44;38.20;28.20
13093;DHT22;6612;49.568;11.000;2022-08-05T09:19:11;38.20;28.00
13093;DHT22;6612;49.568;11.000;2022-08-05T09:21:38;38.20;27.90
13093;DHT22;6612;49.568;11.000;2022-08-05T09:24:08;38.10;27.70
13093;DHT22;6612;49.568;11.000;2022-08-05T09:26:37;38.10;27.50
13093;DHT22;6612;49.568;11.000;2022-08-05T09:29:06;38.10;27.60
13093;DHT22;6612;49.568;11.000;2022-08-05T09:31:33;38.10;27.60
13093;DHT22;6612;49.568;11.000;2022-08-05T09:34:02;38.10;27.40
13093;DHT22;6612;49.568;11.000;2022-08-05T09:36:41;38.10;27.50
13093;DHT22;6612;49.568;11.000;2022-08-05T09:39:11;38.10;27.30
13093;DHT22;6612;49.568;11.000;2022-08-05T09:41:54;38.10;27.60
13093;DHT22;6612;49.568;11.000;2022-08-05T09:44:36;38.20;27.50
13093;DHT22;6612;49.568;11.000;2022-08-05T09:47:08;38.40;27.40
13093;DHT22;6612;49.568;11.000;2022-08-05T09:49:43;38.60;27.90
13093;DHT22;6612;49.568;11.000;2022-08-05T09:52:19;39.00;27.40
13093;DHT22;6612;49.568;11.000;2022-08-05T09:54:53;39.40;26.70
13093;DHT22;6612;49.568;11.000;2022-08-05T09:57:34;39.70;26.10
13093;DHT22;6612;49.568;11.000;2022-08-05T10:00:08;40.00;25.50
13093;DHT22;6612;49.568;11.000;2022-08-05T10:02:39;40.10;25.20
13093;DHT22;6612;49.568;11.000;2022-08-05T10:05:11;40.20;24.70
13093;DHT22;6612;49.568;11.000;2022-08-05T10:07:44;40.10;24.30
13093;DHT22;6612;49.568;11.000;2022-08-05T10:10:13;40.00;24.20
13093;DHT22;6612;49.568;11.000;2022-08-05T10:12:44;39.90;24.10
13093;DHT22;6612;49.568;11.000;2022-08-05T10:15:22;39.70;24.30
13093;DHT22;6612;49.568;11.000;2022-08-05T10:18:08;39.50;24.70
13093;DHT22;6612;49.568;11.000;2022-08-05T10:20:38;39.40;24.20
13093;DHT22;6612;49.568;11.000;2022-08-05T10:23:06;39.20;24.10
13093;DHT22;6612;49.568;11.000;2022-08-05T10:25:35;39.10;24.10
13093;DHT22;6612;49.568;11.000;2022-08-05T10:28:02;39.00;24.20
13093;DHT22;6612;49.568;11.000;2022-08-05T10:30:29;38.90;24.30
13093;DHT22;6612;49.568;11.000;2022-08-05T10:32:57;38.90;24.10
13093;DHT22;6612;49.568;11.000;2022-08-05T10:35:25;38.90;24.00
13093;DHT22;6612;49.568;11.000;2022-08-05T10:37:52;38.80;24.00
13093;DHT22;6612;49.568;11.000;2022-08-05T10:40:29;38.70;24.00
13093;DHT22;6612;49.568;11.000;2022-08-05T10:43:05;38.60;23.60
13093;DHT22;6612;49.568;11.000;2022-08-05T10:45:34;38.50;23.60
13093;DHT22;6612;49.568;11.000;2022-08-05T10:48:29;38.50;23.90
13093;DHT22;6612;49.568;11.000;2022-08-05T10:50:58;38.40;24.00
13093;DHT22;6612;49.568;11.000;2022-08-05T10:53:34;38.40;24.30
13093;DHT22;6612;49.568;11.000;2022-08-05T10:56:02;38.40;24.00
13093;DHT22;6612;49.568;11.000;2022-08-05T10:58:31;38.40;24.00
13093;DHT22;6612;49.568;11.000;2022-08-05T11:00:58;38.40;24.00
13093;DHT22;6612;49.568;11.000;2022-08-05T11:03:25;38.40;24.20
13093;DHT22;6612;49.568;11.000;2022-08-05T11:06:06;38.40;24.20
13093;DHT22;6612;49.568;11.000;2022-08-05T11:08:33;38.40;23.90
13093;DHT22;6612;49.568;11.000;2022-08-05T11:11:30;38.40;24.00
13093;DHT22;6612;49.568;11.000;2022-08-05T11:14:00;38.40;24.10
13093;DHT22;6612;49.568;11.000;2022-08-05T11:16:27;38.40;24.40
13093;DHT22;6612;49.568;11.000;2022-08-05T11:19:26;38.40;23.70
13093;DHT22;6612;49.568;11.000;2022-08-05T11:21:54;38.40;23.60
13093;DHT22;6612;49.568;11.000;2022-08-05T11:24:21;38.30;23.70
13093;DHT22;6612;49.568;11.000;2022-08-05T11:26:49;38.30;23.70
13093;DHT22;6612;49.568;11.000;2022-08-05T11:29:37;38.20;23.70
13093;DHT22;6612;49.568;11.000;2022-08-05T11:32:25;38.20;23.80
13093;DHT22;6612;49.568;11.000;2022-08-05T11:34:54;38.10;23.80
13093;DHT22;6612;49.568;11.000;2022-08-05T11:40:56;38.10;24.00
13093;DHT22;6612;49.568;11.000;2022-08-05T11:43:24;38.10;24.10
13093;DHT22;6612;49.568;11.000;2022-08-05T11:45:52;38.10;24.10
13093;DHT22;6612;49.568;11.000;2022-08-05T11:48:20;38.10;24.20
13093;DHT22;6612;49.568;11.000;2022-08-05T11:50:47;38.10;24.20
13093;DHT22;6612;49.568;11.000;2022-08-05T11:53:15;38.10;24.30
13093;DHT22;6612;49.568;11.000;2022-08-05T11:55:55;38.20;24.40
13093;DHT22;6612;49.568;11.000;2022-08-05T11:58:28;38.20;24.10
13093;DHT22;6612;49.568;11.000;2022-08-05T12:01:04;38.20;24.10
13093;DHT22;6612;49.568;11.000;2022-08-05T12:03:41;38.20;24.20
13093;DHT22;6612;49.568;11.000;2022-08-05T12:06:08;38.20;24.10
13093;DHT22;6612;49.568;11.000;2022-08-05T12:08:43;38.20;24.20
13093;DHT22;6612;49.568;11.000;2022-08-05T12:11:16;38.20;24.00
13093;DHT22;6612;49.568;11.000;2022-08-05T12:13:52;38.20;24.10
13093;DHT22;6612;49.568;11.000;2022-08-05T12:16:22;38.20;24.10
13093;DHT22;6612;49.568;11.000;2022-08-05T12:18:50;38.20;23.90
13093;DHT22;6612;49.568;11.000;2022-08-05T12:21:19;38.20;24.10
13093;DHT22;6612;49.568;11.000;2022-08-05T12:23:56;38.20;24.20
13093;DHT22;6612;49.568;11.000;2022-08-05T12:26:28;38.10;24.30
13093;DHT22;6612;49.568;11.000;2022-08-05T12:28:55;38.10;24.10
13093;DHT22;6612;49.568;11.000;2022-08-05T12:31:24;38.10;24.20
13093;DHT22;6612;49.568;11.000;2022-08-05T12:33:51;38.00;23.80
13093;DHT22;6612;49.568;11.000;2022-08-05T12:36:19;37.90;23.70
13093;DHT22;6612;49.568;11.000;2022-08-05T12:38:46;37.90;23.90
13093;DHT22;6612;49.568;11.000;2022-08-05T12:41:14;37.80;23.90
13093;DHT22;6612;49.568;11.000;2022-08-05T12:43:49;37.70;23.80
13093;DHT22;6612;49.568;11.000;2022-08-05T12:46:24;37.60;23.70
13093;DHT22;6612;49.568;11.000;2022-08-05T12:48:59;37.60;24.10
13093;DHT22;6612;49.568;11.000;2022-08-05T12:51:27;37.50;23.80
13093;DHT22;6612;49.568;11.000;2022-08-05T12:54:00;37.40;24.00
13093;DHT22;6612;49.568;11.000;2022-08-05T12:56:28;37.40;24.30
13093;DHT22;6612;49.568;11.000;2022-08-05T12:59:15;37.40;24.60
13093;DHT22;6612;49.568;11.000;2022-08-05T13:01:54;37.30;24.30
13093;DHT22;6612;49.568;11.000;2022-08-05T13:04:25;37.30;24.30
13093;DHT22;6612;49.568;11.000;2022-08-05T13:06:55;37.20;24.30
13093;DHT22;6612;49.568;11.000;2022-08-05T13:09:23;37.20;24.10
13093;DHT22;6612;49.568;11.000;2022-08-05T13:11:50;37.10;24.20
13093;DHT22;6612;49.568;11.000;2022-08-05T13:14:20;37.10;24.30
13093;DHT22;6612;49.568;11.000;2022-08-05T13:16:53;37.00;24.30
13093;DHT22;6612;49.568;11.000;2022-08-05T13:19:22;37.00;24.30
13093;DHT22;6612;49.568;11.000;2022-08-05T13:21:49;37.00;24.40
13093;DHT22;6612;49.568;11.000;2022-08-05T13:24:17;37.00;24.40
13093;DHT22;6612;49.568;11.000;2022-08-05T13:26:46;36.90;24.40
13093;DHT22;6612;49.568;11.000;2022-08-05T13:29:14;36.90;24.60
13093;DHT22;6612;49.568;11.000;2022-08-05T13:31:42;36.90;24.60
13093;DHT22;6612;49.568;11.000;2022-08-05T13:34:10;36.90;24.60
13093;DHT22;6612;49.568;11.000;2022-08-05T13:36:37;36.90;24.80
13093;DHT22;6612;49.568;11.000;2022-08-05T13:39:05;36.90;24.70
13093;DHT22;6612;49.568;11.000;2022-08-05T13:41:33;36.90;24.70
13093;DHT22;6612;49.568;11.000;2022-08-05T13:44:00;36.80;24.80
13093;DHT22;6612;49.568;11.000;2022-08-05T13:46:27;36.80;24.90
13093;DHT22;6612;49.568;11.000;2022-08-05T13:48:54;36.80;24.90
13093;DHT22;6612;49.568;11.000;2022-08-05T13:51:30;36.80;24.90
13093;DHT22;6612;49.568;11.000;2022-08-05T13:53:57;36.90;24.80
13093;DHT22;6612;49.568;11.000;2022-08-05T13:56:24;36.80;24.80
13093;DHT22;6612;49.568;11.000;2022-08-05T13:58:51;36.80;24.90
13093;DHT22;6612;49.568;11.000;2022-08-05T14:01:19;36.80;25.00
13093;DHT22;6612;49.568;11.000;2022-08-05T14:03:46;36.90;25.00
13093;DHT22;6612;49.568;11.000;2022-08-05T14:06:36;36.90;24.90
13093;DHT22;6612;49.568;11.000;2022-08-05T14:09:03;36.80;24.50
13093;DHT22;6612;49.568;11.000;2022-08-05T14:11:30;36.90;24.70
13093;DHT22;6612;49.568;11.000;2022-08-05T14:13:57;36.80;24.50
13093;DHT22;6612;49.568;11.000;2022-08-05T14:16:24;36.80;24.40
13093;DHT22;6612;49.568;11.000;2022-08-05T14:18:51;36.80;24.40
13093;DHT22;6612;49.568;11.000;2022-08-05T14:21:18;36.80;24.20
13093;DHT22;6612;49.568;11.000;2022-08-05T14:23:48;36.80;24.00
13093;DHT22;6612;49.568;11.000;2022-08-05T14:26:14;36.70;23.90
13093;DHT22;6612;49.568;11.000;2022-08-05T14:28:41;36.70;23.80
13093;DHT22;6612;49.568;11.000;2022-08-05T14:31:08;36.70;24.00
13093;DHT22;6612;49.568;11.000;2022-08-05T14:33:35;36.70;23.80
13093;DHT22;6612;49.568;11.000;2022-08-05T14:36:03;36.70;23.70
13093;DHT22;6612;49.568;11.000;2022-08-05T14:38:30;36.60;23.80
13093;DHT22;6612;49.568;11.000;2022-08-05T14:40:59;36.60;24.30
13093;DHT22;6612;49.568;11.000;2022-08-05T14:43:25;36.50;23.80
13093;DHT22;6612;49.568;11.000;2022-08-05T14:45:52;36.50;23.90
13093;DHT22;6612;49.568;11.000;2022-08-05T14:48:19;36.50;24.00
13093;DHT22;6612;49.568;11.000;2022-08-05T14:50:46;36.50;24.20
13093;DHT22;6612;49.568;11.000;2022-08-05T14:53:13;36.50;24.30
13093;DHT22;6612;49.568;11.000;2022-08-05T14:55:40;36.40;24.30
13093;DHT22;6612;49.568;11.000;2022-08-05T14:58:09;36.40;24.30
13093;DHT22;6612;49.568;11.000;2022-08-05T15:00:36;36.40;24.60
13093;DHT22;6612;49.568;11.000;2022-08-05T15:03:04;36.40;24.80
13093;DHT22;6612;49.568;11.000;2022-08-05T15:05:32;36.40;25.00
13093;DHT22;6612;49.568;11.000;2022-08-05T15:07:59;36.40;25.20
13093;DHT22;6612;49.568;11.000;2022-08-05T15:10:26;36.40;25.70
13093;DHT22;6612;49.568;11.000;2022-08-05T15:12:53;36.50;25.20
13093;DHT22;6612;49.568;11.000;2022-08-05T15:15:21;36.40;25.00
13093;DHT22;6612;49.568;11.000;2022-08-05T15:17:48;36.50;24.90
13093;DHT22;6612;49.568;11.000;2022-08-05T15:20:15;36.50;24.70
13093;DHT22;6612;49.568;11.000;2022-08-05T15:22:42;36.40;24.50
13093;DHT22;6612;49.568;11.000;2022-08-05T15:25:09;36.40;24.60
13093;DHT22;6612;49.568;11.000;2022-08-05T15:27:36;36.40;24.60
13093;DHT22;6612;49.568;11.000;2022-08-05T15:30:04;36.30;24.20
13093;DHT22;6612;49.568;11.000;2022-08-05T15:32:33;36.30;24.60
13093;DHT22;6612;49.568;11.000;2022-08-05T15:35:00;36.20;24.70
13093;DHT22;6612;49.568;11.000;2022-08-05T15:37:27;36.10;24.70
13093;DHT22;6612;49.568;11.000;2022-08-05T15:39:54;36.10;24.40
13093;DHT22;6612;49.568;11.000;2022-08-05T15:42:21;36.00;24.80
13093;DHT22;6612;49.568;11.000;2022-08-05T15:44:49;35.90;24.90
13093;DHT22;6612;49.568;11.000;2022-08-05T15:47:16;35.90;24.90